createdAt,value
2019-05-07T00:01:09.015Z,3.33
2019-05-07T00:03:42.172Z,2.80
2019-05-07T00:06:14.255Z,3.00
2019-05-07T00:08:46.186Z,2.93
2019-05-07T00:11:18.203Z,3.00
2019-05-07T00:13:52.274Z,2.60
2019-05-07T00:16:23.746Z,3.27
2019-05-07T00:18:55.702Z,2.60
2019-05-07T00:21:27.990Z,2.90
2019-05-07T00:24:02.248Z,2.77
2019-05-07T00:26:33.931Z,2.67
2019-05-07T00:29:05.865Z,3.30
2019-05-07T00:31:41.978Z,3.20
2019-05-07T00:34:15.653Z,2.20
2019-05-07T00:36:52.583Z,2.80
2019-05-07T00:39:38.474Z,2.60
2019-05-07T00:42:22.100Z,2.73
2019-05-07T00:45:14.183Z,2.77
2019-05-07T00:47:34.967Z,3.20
2019-05-07T00:50:22.513Z,2.60
2019-05-07T00:52:54.648Z,3.30
2019-05-07T00:55:26.576Z,3.33
2019-05-07T00:57:58.509Z,2.73
2019-05-07T01:00:30.568Z,3.23
2019-05-07T01:03:04.181Z,2.77
2019-05-07T01:05:45.627Z,3.33
2019-05-07T01:08:17.640Z,3.50
2019-05-07T01:10:49.612Z,3.23
2019-05-07T01:13:23.391Z,3.57
2019-05-07T01:15:55.214Z,2.70
2019-05-07T01:18:27.151Z,3.00
2019-05-07T01:20:59.117Z,2.63
2019-05-07T01:23:32.246Z,2.63
2019-05-07T01:26:04.604Z,2.70
2019-05-07T01:28:47.093Z,2.77
2019-05-07T01:31:19.021Z,3.20
2019-05-07T01:33:55.270Z,2.40
2019-05-07T01:36:27.215Z,3.00
2019-05-07T01:38:59.158Z,2.87
2019-05-07T01:41:32.681Z,2.70
2019-05-07T01:44:04.965Z,2.80
2019-05-07T01:46:36.904Z,3.43
2019-05-07T01:49:08.858Z,2.90
2019-05-07T01:51:42.289Z,3.10
2019-05-07T01:54:15.430Z,3.40
2019-05-07T01:56:47.353Z,2.80
2019-05-07T01:59:19.923Z,3.30
2019-05-07T02:01:53.512Z,3.50
2019-05-07T02:04:39.308Z,2.63
2019-05-07T02:07:15.867Z,2.63
2019-05-07T02:09:52.150Z,2.73
2019-05-07T02:12:31.924Z,2.80
2019-05-07T02:15:06.034Z,3.23
2019-05-07T02:17:37.967Z,2.90
2019-05-07T02:20:13.049Z,3.47
2019-05-07T02:22:45.168Z,3.07
2019-05-07T02:25:17.511Z,2.50
2019-05-07T02:27:49.460Z,2.67
2019-05-07T02:30:23.925Z,3.27
2019-05-07T02:32:55.390Z,3.00
2019-05-07T02:35:27.345Z,3.33
2019-05-07T02:38:03.577Z,2.27
2019-05-07T02:40:54.522Z,3.00
2019-05-07T02:43:26.522Z,2.53
2019-05-07T02:46:21.422Z,2.53
2019-05-07T02:48:53.416Z,2.63
2019-05-07T02:51:25.822Z,3.00
2019-05-07T02:54:08.163Z,3.40
2019-05-07T02:56:43.022Z,3.30
2019-05-07T02:59:13.917Z,3.43
2019-05-07T03:01:45.844Z,3.03
2019-05-07T03:04:17.790Z,3.23
2019-05-07T03:06:49.794Z,2.87
2019-05-07T03:09:22.772Z,3.43
2019-05-07T03:11:54.885Z,2.67
2019-05-07T03:14:26.799Z,2.93
2019-05-07T03:16:58.814Z,2.87
2019-05-07T03:19:33.285Z,2.90
2019-05-07T03:22:05.233Z,2.80
2019-05-07T03:24:38.803Z,3.40
2019-05-07T03:27:13.843Z,4.13
2019-05-07T03:29:46.251Z,3.33
2019-05-07T03:32:27.431Z,3.10
2019-05-07T03:35:16.161Z,2.80
2019-05-07T03:37:47.245Z,3.00
2019-05-07T03:40:19.480Z,3.43
2019-05-07T03:42:53.539Z,2.70
2019-05-07T03:45:26.767Z,2.70
2019-05-07T03:48:15.389Z,3.37
2019-05-07T03:50:47.376Z,3.30
2019-05-07T03:53:22.706Z,2.73
2019-05-07T03:55:54.096Z,2.80
2019-05-07T03:58:26.163Z,3.20
2019-05-07T04:00:58.110Z,3.30
2019-05-07T04:03:33.531Z,3.17
2019-05-07T04:06:04.222Z,3.27
2019-05-07T04:08:36.421Z,3.57
2019-05-07T04:11:08.367Z,3.10
2019-05-07T04:13:40.286Z,2.90
2019-05-07T04:16:13.629Z,3.43
2019-05-07T04:18:45.921Z,3.17
2019-05-07T04:21:17.933Z,2.97
2019-05-07T04:23:54.161Z,3.00
2019-05-07T04:26:26.823Z,2.97
2019-05-07T04:29:05.636Z,3.17
2019-05-07T04:31:37.042Z,3.20
2019-05-07T04:34:13.175Z,2.87
2019-05-07T04:36:45.906Z,3.17
2019-05-07T04:39:17.840Z,3.10
2019-05-07T04:41:52.828Z,2.80
2019-05-07T04:44:23.755Z,3.30
2019-05-07T04:46:55.849Z,3.27
2019-05-07T04:49:27.783Z,3.07
2019-05-07T04:52:03.973Z,3.23
2019-05-07T04:54:35.069Z,3.23
2019-05-07T04:57:08.629Z,3.03
2019-05-07T04:59:42.752Z,3.20
2019-05-07T05:02:15.935Z,3.40
2019-05-07T05:04:47.917Z,3.07
2019-05-07T05:07:22.415Z,3.33
2019-05-07T05:09:53.817Z,3.50
2019-05-07T05:12:25.745Z,3.70
2019-05-07T05:14:57.700Z,4.63
2019-05-07T05:17:31.908Z,3.07
2019-05-07T05:20:04.476Z,3.47
2019-05-07T05:22:50.666Z,2.90
2019-05-07T05:25:24.854Z,3.17
2019-05-07T05:27:56.786Z,3.33
2019-05-07T05:30:32.834Z,3.23
2019-05-07T05:33:05.042Z,4.40
2019-05-07T05:35:37.957Z,3.53
2019-05-07T05:38:11.984Z,2.90
2019-05-07T05:40:43.569Z,4.07
2019-05-07T05:43:17.227Z,3.07
2019-05-07T05:45:52.906Z,3.83
2019-05-07T05:48:24.526Z,3.50
2019-05-07T05:51:13.099Z,3.60
2019-05-07T05:53:49.609Z,3.07
2019-05-07T05:56:23.201Z,3.13
2019-05-07T05:59:05.697Z,3.10
2019-05-07T06:01:52.171Z,2.93
2019-05-07T06:04:42.116Z,2.83
2019-05-07T06:07:22.657Z,3.27
2019-05-07T06:10:12.832Z,3.10
2019-05-07T06:12:46.828Z,2.83
2019-05-07T06:15:34.254Z,3.40
2019-05-07T06:18:20.376Z,3.17
2019-05-07T06:20:43.825Z,3.03
2019-05-07T06:23:17.407Z,3.17
2019-05-07T06:25:52.169Z,3.33
2019-05-07T06:28:23.029Z,3.10
2019-05-07T06:30:54.983Z,3.20
2019-05-07T06:33:27.322Z,2.90
2019-05-07T06:35:59.263Z,3.07
2019-05-07T06:38:33.192Z,2.53
2019-05-07T06:41:23.374Z,3.53
2019-05-07T06:43:57.018Z,2.87
2019-05-07T06:46:28.973Z,3.53
2019-05-07T06:49:02.166Z,2.60
2019-05-07T06:51:34.243Z,2.87
2019-05-07T06:54:06.268Z,2.63
2019-05-07T06:56:38.212Z,3.30
2019-05-07T06:59:14.892Z,2.47
2019-05-07T07:01:52.967Z,2.43
2019-05-07T07:04:26.742Z,2.80
2019-05-07T07:07:22.480Z,3.33
2019-05-07T07:09:48.128Z,2.30
2019-05-07T07:12:26.072Z,2.90
2019-05-07T07:14:58.263Z,2.50
2019-05-07T07:17:32.452Z,3.13
2019-05-07T07:20:06.600Z,2.70
2019-05-07T07:22:38.543Z,2.60
2019-05-07T07:25:11.940Z,2.30
2019-05-07T07:27:44.106Z,2.50
2019-05-07T07:30:27.375Z,2.37
2019-05-07T07:33:02.815Z,2.50
2019-05-07T07:35:34.618Z,3.07
2019-05-07T07:38:24.630Z,2.23
2019-05-07T07:40:58.369Z,2.40
2019-05-07T07:43:32.393Z,2.73
2019-05-07T07:46:04.508Z,2.37
2019-05-07T07:48:36.836Z,3.03
2019-05-07T07:51:08.845Z,2.17
2019-05-07T07:53:42.493Z,2.53
2019-05-07T07:56:25.375Z,2.70
2019-05-07T07:59:12.528Z,2.60
2019-05-07T08:02:01.917Z,2.50
2019-05-07T08:04:34.037Z,2.23
2019-05-07T08:07:06.900Z,2.40
2019-05-07T08:09:39.054Z,2.57
2019-05-07T08:12:12.736Z,2.77
2019-05-07T08:14:44.675Z,2.00
2019-05-07T08:17:17.313Z,2.30
2019-05-07T08:20:05.484Z,2.30
2019-05-07T08:22:37.522Z,2.33
2019-05-07T08:25:16.563Z,2.10
2019-05-07T08:27:53.827Z,2.20
2019-05-07T08:30:32.613Z,2.50
2019-05-07T08:33:09.828Z,2.40
2019-05-07T08:35:44.036Z,2.40
2019-05-07T08:38:16.975Z,1.90
2019-05-07T08:40:49.305Z,2.30
2019-05-07T08:43:21.832Z,2.37
2019-05-07T08:45:58.685Z,1.83
2019-05-07T08:48:36.928Z,2.17
2019-05-07T08:51:11.778Z,2.20
2019-05-07T08:53:47.659Z,2.10
2019-05-07T08:56:19.633Z,2.40
2019-05-07T08:58:52.656Z,2.20
2019-05-07T09:01:26.116Z,2.10
2019-05-07T09:03:58.534Z,1.97
2019-05-07T09:06:33.793Z,2.00
2019-05-07T09:09:22.254Z,2.63
2019-05-07T09:11:54.342Z,2.20
2019-05-07T09:14:26.395Z,2.90
2019-05-07T09:16:58.360Z,2.57
2019-05-07T09:19:32.239Z,1.90
2019-05-07T09:22:04.786Z,2.00
2019-05-07T09:24:37.157Z,2.03
2019-05-07T09:27:14.678Z,2.07
2019-05-07T09:30:04.499Z,2.40
2019-05-07T09:32:42.438Z,1.93
2019-05-07T09:35:16.113Z,2.60
2019-05-07T09:37:48.451Z,2.13
2019-05-07T09:40:21.723Z,2.67
2019-05-07T09:42:53.804Z,2.27
2019-05-07T09:45:25.903Z,2.30
2019-05-07T09:47:58.217Z,2.07
2019-05-07T09:50:32.314Z,2.37
2019-05-07T09:53:03.851Z,1.83
2019-05-07T09:55:39.074Z,2.50
2019-05-07T09:58:12.530Z,2.30
2019-05-07T10:00:44.750Z,3.43
2019-05-07T10:03:16.831Z,2.40
2019-05-07T10:05:52.445Z,1.70
2019-05-07T10:08:24.769Z,2.20
2019-05-07T10:10:56.858Z,1.87
2019-05-07T10:13:33.385Z,2.03
2019-05-07T10:16:07.647Z,2.70
2019-05-07T10:18:43.052Z,2.23
2019-05-07T10:21:15.125Z,2.03
2019-05-07T10:23:47.130Z,2.40
2019-05-07T10:26:19.835Z,1.97
2019-05-07T10:32:24.736Z,2.47
2019-05-07T10:35:43.540Z,2.33
2019-05-07T10:38:15.715Z,1.60
2019-05-07T10:40:47.868Z,2.30
2019-05-07T10:43:28.017Z,2.50
2019-05-07T10:46:18.093Z,2.13
2019-05-07T10:49:12.174Z,1.90
2019-05-07T10:51:43.609Z,1.90
2019-05-07T10:54:15.644Z,2.00
2019-05-07T10:56:52.322Z,2.03
2019-05-07T10:59:25.559Z,1.70
2019-05-07T11:02:02.529Z,1.63
2019-05-07T11:04:42.241Z,1.73
2019-05-07T11:07:08.786Z,1.23
2019-05-07T11:09:42.187Z,2.47
2019-05-07T11:12:14.236Z,1.50
2019-05-07T11:14:46.668Z,1.70
2019-05-07T11:17:26.435Z,1.30
2019-05-07T11:19:58.449Z,1.87
2019-05-07T11:22:32.312Z,1.90
2019-05-07T11:25:06.627Z,1.80
2019-05-07T11:27:38.789Z,2.03
2019-05-07T11:30:12.616Z,1.77
2019-05-07T11:32:44.727Z,1.50
2019-05-07T11:35:16.896Z,1.83
2019-05-07T11:37:48.932Z,2.10
2019-05-07T11:40:24.148Z,2.10
2019-05-07T11:42:57.782Z,2.17
2019-05-07T11:45:43.336Z,2.07
2019-05-07T11:48:16.723Z,2.00
2019-05-07T11:51:01.511Z,1.87
2019-05-07T11:53:59.217Z,1.90
2019-05-07T11:56:32.791Z,2.10
2019-05-07T11:59:08.449Z,2.17
2019-05-07T12:01:47.116Z,1.50
2019-05-07T12:04:20.534Z,2.00
2019-05-07T12:07:45.935Z,1.83
2019-05-07T12:10:05.035Z,2.10
2019-05-07T12:12:38.825Z,2.10
2019-05-07T12:15:12.467Z,1.70
2019-05-07T12:17:44.610Z,1.80
2019-05-07T12:20:17.733Z,2.03
2019-05-07T12:22:52.470Z,2.00
2019-05-07T12:25:24.628Z,1.53
2019-05-07T12:27:57.699Z,1.70
2019-05-07T12:30:33.535Z,1.70
2019-05-07T12:33:12.279Z,1.90
2019-05-07T12:35:44.168Z,1.70
2019-05-07T12:38:16.348Z,2.07
2019-05-07T12:41:05.241Z,2.03
2019-05-07T12:46:57.960Z,1.50
2019-05-07T12:49:35.478Z,2.03
2019-05-07T13:01:23.951Z,1.67
2019-05-07T13:04:03.148Z,1.60
2019-05-07T13:06:36.830Z,1.80
2019-05-07T13:09:09.663Z,1.87
2019-05-07T13:11:42.499Z,1.50
2019-05-07T13:14:15.990Z,1.67
2019-05-07T13:16:48.298Z,1.97
2019-05-07T13:19:22.537Z,1.73
2019-05-07T13:21:54.288Z,1.97
2019-05-07T13:24:26.770Z,2.40
2019-05-07T13:26:58.748Z,1.83
2019-05-07T13:29:32.463Z,2.33
2019-05-07T13:32:05.923Z,2.13
2019-05-07T13:34:38.970Z,2.33
2019-05-07T13:37:22.911Z,2.27
2019-05-07T13:39:56.992Z,2.63
2019-05-07T13:42:41.946Z,2.43
2019-05-07T13:45:33.350Z,2.13
2019-05-07T13:48:07.337Z,2.07
2019-05-07T13:50:41.880Z,2.27
2019-05-07T13:53:13.896Z,2.40
2019-05-07T13:55:46.369Z,2.00
2019-05-07T13:58:18.781Z,2.33
2019-05-07T14:00:55.535Z,1.70
2019-05-07T14:03:27.923Z,2.67
2019-05-07T14:06:01.722Z,1.90
2019-05-07T14:08:35.691Z,1.90
2019-05-07T14:11:07.634Z,1.70
2019-05-07T14:13:43.385Z,1.97
2019-05-07T14:16:14.084Z,1.60
2019-05-07T14:18:46.468Z,1.80
2019-05-07T14:21:18.407Z,1.77
2019-05-07T14:23:52.136Z,1.83
2019-05-07T14:26:24.289Z,2.07
2019-05-07T14:28:56.230Z,2.00
2019-05-07T14:31:28.255Z,1.67
2019-05-07T14:34:04.329Z,2.10
2019-05-07T14:36:43.679Z,1.77
2019-05-07T14:39:15.621Z,1.90
2019-05-07T14:41:51.921Z,2.30
2019-05-07T14:44:25.296Z,1.97
2019-05-07T14:46:57.421Z,1.90
2019-05-07T14:49:29.429Z,1.87
2019-05-07T14:52:02.767Z,1.83
2019-05-07T14:54:35.174Z,1.83
2019-05-07T14:57:07.834Z,2.10
2019-05-07T14:59:39.872Z,3.03
2019-05-07T15:02:12.191Z,1.53
2019-05-07T15:04:44.463Z,1.90
2019-05-07T15:10:08.831Z,1.77
2019-05-07T15:12:42.627Z,1.80
2019-05-07T15:15:15.520Z,1.80
2019-05-07T15:17:52.458Z,2.00
2019-05-07T15:20:24.685Z,1.67
2019-05-07T15:22:58.602Z,1.80
2019-05-07T15:25:32.067Z,2.50
2019-05-07T15:28:04.297Z,2.20
2019-05-07T15:30:38.418Z,2.13
2019-05-07T15:33:12.631Z,1.90
2019-05-07T15:35:44.518Z,2.40
2019-05-07T15:38:16.499Z,2.10
2019-05-07T15:40:49.152Z,1.93
2019-05-07T15:43:23.575Z,2.00
2019-05-07T15:45:55.584Z,2.33
2019-05-07T15:48:27.682Z,2.03
2019-05-07T15:50:59.976Z,2.27
2019-05-07T15:53:52.378Z,2.40
2019-05-07T15:56:24.520Z,2.00
2019-05-07T15:58:56.770Z,2.03
2019-05-07T16:01:28.800Z,1.77
2019-05-07T16:04:02.766Z,1.83
2019-05-07T16:06:34.441Z,1.63
2019-05-07T16:09:08.928Z,1.77
2019-05-07T16:11:43.067Z,1.70
2019-05-07T16:14:16.207Z,1.93
2019-05-07T16:16:48.297Z,1.77
2019-05-07T16:19:28.304Z,2.10
2019-05-07T16:22:03.792Z,2.00
2019-05-07T16:24:36.003Z,2.20
2019-05-07T16:27:08.249Z,1.70
2019-05-07T16:29:42.115Z,1.83
2019-05-07T16:32:14.179Z,1.90
2019-05-07T16:34:46.177Z,2.13
2019-05-07T16:37:18.194Z,2.40
2019-05-07T16:39:50.184Z,2.00
2019-05-07T16:42:22.487Z,2.00
2019-05-07T16:44:54.502Z,2.03
2019-05-07T16:47:26.781Z,2.03
2019-05-07T16:49:58.809Z,1.97
2019-05-07T16:52:34.764Z,1.80
2019-05-07T16:55:06.422Z,1.77
2019-05-07T16:57:42.232Z,1.43
2019-05-07T17:00:16.766Z,2.13
2019-05-07T17:02:51.635Z,2.07
2019-05-07T17:05:24.404Z,2.00
2019-05-07T17:08:02.498Z,2.20
2019-05-07T17:10:34.893Z,2.00
2019-05-07T17:13:09.781Z,1.83
2019-05-07T17:15:56.998Z,1.93
2019-05-07T17:18:32.372Z,2.07
2019-05-07T17:21:03.773Z,2.20
2019-05-07T17:23:44.040Z,2.37
2019-05-07T17:26:11.596Z,2.60
2019-05-07T17:28:43.067Z,2.10
2019-05-07T17:31:15.017Z,2.90
2019-05-07T17:33:46.953Z,2.70
2019-05-07T17:36:19.065Z,2.50
2019-05-07T17:38:51.964Z,2.30
2019-05-07T17:41:27.204Z,1.80
2019-05-07T17:43:57.794Z,1.80
2019-05-07T17:46:32.403Z,2.17
2019-05-07T17:49:04.192Z,2.07
2019-05-07T17:51:45.839Z,2.57
2019-05-07T17:54:18.117Z,2.00
2019-05-07T17:56:50.060Z,2.13
2019-05-07T17:59:22.005Z,2.00
2019-05-07T18:02:07.602Z,3.37
2019-05-07T18:04:50.445Z,2.00
2019-05-07T18:07:14.063Z,2.10
2019-05-07T18:09:46.322Z,1.97
2019-05-07T18:12:18.793Z,2.20
2019-05-07T18:14:52.777Z,2.03
2019-05-07T18:17:33.641Z,2.70
2019-05-07T18:20:07.436Z,2.60
2019-05-07T18:22:39.532Z,2.13
2019-05-07T18:25:13.226Z,2.33
2019-05-07T18:27:45.240Z,2.03
2019-05-07T18:30:17.701Z,1.80
2019-05-07T18:32:52.019Z,2.63
2019-05-07T18:35:24.087Z,2.10
2019-05-07T18:37:56.346Z,2.60
2019-05-07T18:40:29.242Z,2.33
2019-05-07T18:43:03.058Z,2.03
2019-05-07T18:45:36.353Z,1.60
2019-05-07T18:48:08.364Z,2.10
2019-05-07T18:50:41.948Z,2.03
2019-05-07T18:53:13.948Z,2.87
2019-05-07T18:55:45.937Z,1.60
2019-05-07T18:58:18.066Z,2.23
2019-05-07T19:01:02.532Z,2.43
2019-05-07T19:03:34.818Z,2.33
2019-05-07T19:06:07.712Z,2.60
2019-05-07T19:08:42.079Z,2.90
2019-05-07T19:11:14.514Z,2.80
2019-05-07T19:13:48.334Z,3.00
2019-05-07T19:16:22.889Z,2.40
2019-05-07T19:18:54.347Z,2.50
2019-05-07T19:21:26.300Z,3.10
2019-05-07T19:23:58.322Z,2.47
2019-05-07T19:26:30.336Z,3.00
2019-05-07T19:29:02.652Z,2.93
2019-05-07T19:31:34.809Z,2.63
2019-05-07T19:34:06.922Z,2.65
2019-05-07T19:36:38.921Z,3.13
2019-05-07T19:39:12.642Z,2.53
2019-05-07T19:41:45.060Z,2.33
2019-05-07T19:44:17.431Z,2.57
2019-05-07T19:46:49.705Z,2.60
2019-05-07T19:49:21.667Z,2.50
2019-05-07T19:51:53.746Z,2.53
2019-05-07T19:54:25.690Z,2.87
2019-05-07T19:56:58.235Z,2.40
2019-05-07T19:59:32.473Z,2.20
2019-05-07T20:02:06.194Z,2.70
2019-05-07T20:04:38.149Z,2.83
2019-05-07T20:07:12.095Z,2.60
2019-05-07T20:09:43.737Z,2.60
2019-05-07T20:12:15.677Z,2.60
2019-05-07T20:14:47.902Z,2.80
2019-05-07T20:17:22.066Z,2.60
2019-05-07T20:19:53.541Z,3.03
2019-05-07T20:22:25.481Z,3.00
2019-05-07T20:24:57.490Z,3.03
2019-05-07T20:27:29.560Z,2.70
2019-05-07T20:30:03.163Z,2.93
2019-05-07T20:32:35.312Z,2.70
2019-05-07T20:35:07.905Z,2.73
2019-05-07T20:37:41.813Z,3.40
2019-05-07T20:40:13.844Z,2.77
2019-05-07T20:42:45.795Z,3.00
2019-05-07T20:45:18.792Z,2.73
2019-05-07T20:47:52.359Z,2.87
2019-05-07T20:50:24.638Z,3.53
2019-05-07T20:52:56.581Z,3.10
2019-05-07T20:55:33.993Z,3.60
2019-05-07T20:58:06.244Z,3.40
2019-05-07T21:00:38.206Z,3.50
2019-05-07T21:03:23.790Z,4.07
2019-05-07T21:05:56.287Z,3.50
2019-05-07T21:08:28.314Z,3.43
2019-05-07T21:11:02.367Z,3.47
2019-05-07T21:13:34.949Z,3.57
2019-05-07T21:16:07.008Z,3.27
2019-05-07T21:18:39.306Z,3.40
2019-05-07T21:21:12.461Z,3.67
2019-05-07T21:23:44.787Z,3.60
2019-05-07T21:26:16.719Z,3.40
2019-05-07T21:28:48.665Z,3.63
2019-05-07T21:31:22.698Z,3.53
2019-05-07T21:33:54.270Z,3.50
2019-05-07T21:36:26.575Z,4.07
2019-05-07T21:38:58.985Z,3.23
2019-05-07T21:41:33.241Z,3.70
2019-05-07T21:44:04.584Z,3.60
2019-05-07T21:46:36.551Z,3.37
2019-05-07T21:49:08.491Z,3.63
2019-05-07T21:51:40.433Z,3.40
2019-05-07T21:54:30.759Z,3.37
2019-05-07T21:57:22.033Z,3.27
2019-05-07T21:59:56.174Z,3.20
2019-05-07T22:02:28.192Z,3.27
2019-05-07T22:05:02.502Z,3.43
2019-05-07T22:07:34.175Z,2.97
2019-05-07T22:10:09.593Z,2.90
2019-05-07T22:12:41.618Z,2.80
2019-05-07T22:15:14.533Z,3.10
2019-05-07T22:17:46.516Z,3.03
2019-05-07T22:20:19.910Z,3.03
2019-05-07T22:22:52.264Z,3.30
2019-05-07T22:25:24.570Z,3.20
2019-05-07T22:27:56.475Z,3.47
2019-05-07T22:30:46.480Z,3.00
2019-05-07T22:33:23.014Z,3.63
2019-05-07T22:35:55.430Z,3.53
2019-05-07T22:38:27.745Z,3.20
2019-05-07T22:41:02.035Z,3.83
2019-05-07T22:43:33.363Z,3.50
2019-05-07T22:46:05.381Z,3.43
2019-05-07T22:48:37.313Z,3.67
2019-05-07T22:51:09.575Z,3.20
2019-05-07T22:53:41.518Z,3.10
2019-05-07T22:56:14.179Z,3.33
2019-05-07T22:58:53.887Z,3.57
2019-05-07T23:01:25.844Z,3.13
2019-05-07T23:03:57.772Z,3.70
2019-05-07T23:06:29.773Z,2.83
2019-05-07T23:09:02.055Z,3.80
2019-05-07T23:11:34.060Z,2.97
2019-05-07T23:14:05.987Z,2.83
2019-05-07T23:16:37.924Z,2.57
2019-05-07T23:19:13.930Z,2.87
2019-05-07T23:21:43.838Z,2.93
2019-05-07T23:24:15.772Z,2.93
2019-05-07T23:26:50.582Z,2.80
2019-05-07T23:29:22.617Z,3.10
2019-05-07T23:31:55.340Z,3.03
2019-05-07T23:34:27.452Z,3.27
2019-05-07T23:37:02.410Z,3.40
2019-05-07T23:39:35.905Z,2.90
2019-05-07T23:42:15.140Z,2.53
2019-05-07T23:44:47.085Z,2.93
2019-05-07T23:47:19.029Z,3.30
2019-05-07T23:49:52.385Z,2.70
2019-05-07T23:52:24.579Z,2.87
2019-05-07T23:54:56.526Z,2.97
2019-05-07T23:57:28.452Z,3.10
